NATURA VA

 METAR AND TAF INFORMATION
METAR FOR LEBA
ADDS - METARS form results

(0354 UTC 16 January 2019)
Data provider http://aviationweather.gov/metar/data/
 
METAR text: LEBA 160330Z 03004KT 330V060 9999 BKN035 06/04 Q1021
Conditions at: LEBA (CORDOBA AIRPORT , ES) observed 0330 UTC 16 January 2019
Temperature: 6.0°C (43°F)
Dewpoint: 4.0°C (39°F) [RH = 87%]
Pressure (altimeter): 30.15 inches Hg (1021.0 mb)
Winds: from the NNE (30 degrees) at 5 MPH (4 knots; 2.1 m/s)
Visibility: 6 or more miles (10+ km)
Ceiling: 3500 feet AGL
Clouds: broken clouds at 3500 feet AGL
Weather: no significant weather observed at this time

METAR text: LEBA 160300Z 00000KT 9999 BKN035 05/03 Q1021
Conditions at: LEBA (CORDOBA AIRPORT , ES) observed 0300 UTC 16 January 2019
Temperature: 5.0°C (41°F)
Dewpoint: 3.0°C (37°F) [RH = 87%]
Pressure (altimeter): 30.15 inches Hg (1021.0 mb)
Winds: calm
Visibility: 6 or more miles (10+ km)
Ceiling: 3500 feet AGL
Clouds: broken clouds at 3500 feet AGL
Weather: no significant weather observed at this time

Forecast for: LEBA (CORDOBA AIRPORT , ES)
Text: TAF LEBA 160200Z 1603/1612 08004KT 9999 BKN025
Forecast period: 0300 to 1200 UTC 16 January 2019
Forecast type: FROM: standard forecast or significant change
Winds: from the E (80 degrees) at 5 MPH (4 knots; 2.1 m/s)
Visibility: 6 or more miles 10+ km)
Ceiling: 2500 feet AGL
Clouds: broken clouds at 2500 feet AGL
Weather: no significant weather forecast for this period
Text: PROB30
Forecast period: 0400 to 0900 UTC 16 January 2019
Forecast type: TEMPORARY: The following changes expected for less than half the time period
Visibility: missing
Ceiling: 1200 feet AGL
Clouds: broken clouds at 1200 feet AGL
Weather: no significant weather forecast for this period

 AIRPORT MAP

 RUNWAY INFORMATION
Runway 03 Runway length 4527 ft Runway width 148 ft
Runway elevation 293 ft Runway displaced threshold 0 ft Runway heading 29
Runway 21 Runway length 4527 ft Runway width 148 ft
Runway elevation 297 ft Runway displaced threshold 0 ft Runway heading 209

 AIRPORT FREQUENCIES
Type CTAF Name CTAF Frequency 118.3 MHZ

 AIRPORT NEAR NAVIGATION AIDS
Type VOR-DME Name Cordoba Frequency 112400 KHZ
Type NDB Name Cordoba Frequency 366 KHZ



Powered by Virtual Airlines Manager [v2.6.2]